Time;durP1;ratioP1;P1;durP2;ratioP2;P2;SDS_P1;SDS_P2;PMS_P1;PMS_P2;Temp;Humidity;BMP_temperature;BMP_pressure;BME280_temperature;BME280_humidity;BME280_pressure;Samples;Min_cycle;Max_cycle;Signal;HPM_P1;HPM_P2
2021/08/12 00:00:04;;;;;;;1.38;1.10;;;16.80;85.00;;;;;;5073258;28;20032;-85
2021/08/12 00:02:30;;;;;;;1.13;0.90;;;16.80;85.00;;;;;;5073077;28;20029;-86
2021/08/12 00:04:55;;;;;;;1.15;1.05;;;16.80;85.00;;;;;;5073380;28;20027;-86
2021/08/12 00:07:21;;;;;;;1.20;0.90;;;16.80;85.10;;;;;;5073180;28;20035;-86
2021/08/12 00:09:47;;;;;;;1.85;1.15;;;16.70;85.10;;;;;;5073355;28;20052;-85
2021/08/12 00:12:13;;;;;;;0.90;0.80;;;16.70;85.30;;;;;;5073441;28;20036;-86
2021/08/12 00:14:39;;;;;;;0.93;0.82;;;16.70;85.30;;;;;;5055471;28;20070;-86
2021/08/12 00:17:04;;;;;;;0.77;0.73;;;16.70;85.30;;;;;;5073235;28;20096;-87
2021/08/12 00:19:30;;;;;;;1.10;1.00;;;16.70;85.30;;;;;;5073439;28;20024;-86
2021/08/12 00:21:55;;;;;;;0.93;0.93;;;16.60;85.30;;;;;;5075769;28;20052;-87
2021/08/12 00:24:21;;;;;;;0.75;0.70;;;16.60;85.30;;;;;;5076959;28;20095;-87
2021/08/12 00:26:48;;;;;;;0.75;0.75;;;16.60;85.50;;;;;;5077173;28;20021;-87
2021/08/12 00:29:14;;;;;;;0.90;0.90;;;16.50;85.60;;;;;;5076905;28;20025;-88
2021/08/12 00:31:40;;;;;;;0.80;0.80;;;16.50;85.70;;;;;;5076457;28;20021;-87
2021/08/12 00:34:08;;;;;;;0.93;0.82;;;16.50;85.70;;;;;;5076797;28;20021;-87
2021/08/12 00:36:33;;;;;;;1.10;0.80;;;16.50;85.60;;;;;;5077016;28;20047;-88
2021/08/12 00:38:59;;;;;;;1.13;1.05;;;16.50;85.70;;;;;;5076856;28;20461;-87
2021/08/12 00:41:25;;;;;;;1.40;0.98;;;16.50;85.70;;;;;;5076769;28;20033;-87
2021/08/12 00:43:51;;;;;;;1.58;1.08;;;16.40;85.70;;;;;;5059221;28;20428;-88
2021/08/12 00:46:16;;;;;;;1.38;1.27;;;16.40;85.70;;;;;;5058758;28;20074;-88
2021/08/12 00:48:42;;;;;;;1.55;1.15;;;16.40;85.80;;;;;;5076806;28;20377;-88
2021/08/12 00:51:07;;;;;;;1.25;1.02;;;16.40;85.70;;;;;;5076622;28;20469;-87
2021/08/12 00:53:33;;;;;;;1.75;1.48;;;16.40;85.80;;;;;;5076842;28;20027;-89
2021/08/12 00:55:59;;;;;;;1.40;0.93;;;16.40;85.80;;;;;;5077479;28;20032;-89
2021/08/12 00:58:25;;;;;;;1.50;1.20;;;16.40;85.80;;;;;;5077238;28;20104;-89
2021/08/12 01:00:51;;;;;;;1.15;1.05;;;16.30;85.90;;;;;;5076229;28;20036;-89
2021/08/12 01:03:17;;;;;;;1.20;1.10;;;16.30;86.00;;;;;;5076422;28;20021;-87
2021/08/12 01:05:54;;;;;;;1.75;0.93;;;16.30;86.00;;;;;;5076605;28;20393;-87
2021/08/12 01:08:35;;;;;;;0.73;0.73;;;16.30;86.10;;;;;;5058779;28;20449;-87
2021/08/12 01:11:13;;;;;;;1.50;0.82;;;16.20;86.80;;;;;;5058419;28;20029;-86
2021/08/12 01:14:03;;;;;;;1.90;1.13;;;16.20;86.20;;;;;;5076296;28;20028;-86
2021/08/12 01:16:38;;;;;;;1.25;1.15;;;16.20;86.20;;;;;;5076305;28;20070;-87
2021/08/12 01:19:35;;;;;;;1.60;1.23;;;16.20;86.20;;;;;;5075897;28;20017;-88
2021/08/12 01:22:09;;;;;;;1.10;1.00;;;16.20;86.20;;;;;;5076153;28;20091;-88
2021/08/12 01:24:38;;;;;;;0.88;0.82;;;16.10;86.20;;;;;;5076022;28;20013;-88
2021/08/12 01:27:07;;;;;;;0.77;0.77;;;16.10;86.40;;;;;;5076056;28;20024;-88
2021/08/12 01:30:00;;;;;;;1.30;1.20;;;16.10;86.40;;;;;;5075407;28;20492;-88
2021/08/12 01:32:28;;;;;;;1.73;1.33;;;16.10;86.30;;;;;;5074897;28;20041;-87
2021/08/12 01:35:13;;;;;;;1.58;0.95;;;16.10;86.40;;;;;;5075725;28;20492;-87
2021/08/12 01:37:44;;;;;;;1.02;1.00;;;16.10;86.30;;;;;;5075450;28;20029;-87
2021/08/12 01:40:14;;;;;;;1.02;0.90;;;16.10;86.40;;;;;;5057788;28;20031;-87
2021/08/12 01:42:40;;;;;;;1.40;1.30;;;16.10;86.40;;;;;;5075620;28;20021;-86
2021/08/12 01:45:06;;;;;;;1.45;1.17;;;16.10;86.40;;;;;;5075298;28;20105;-88
2021/08/12 01:47:34;;;;;;;1.67;1.20;;;16.10;86.40;;;;;;5075585;28;20533;-87
2021/08/12 01:50:03;;;;;;;1.48;1.20;;;16.10;86.40;;;;;;5075275;28;20040;-87
2021/08/12 01:52:31;;;;;;;;;;;16.10;86.40;;;;;;5075535;28;20029;-86
2021/08/12 01:54:57;;;;;;;1.00;0.90;;;16.00;86.30;;;;;;5075347;28;20029;-86
2021/08/12 01:57:24;;;;;;;1.48;1.17;;;16.10;86.40;;;;;;5075152;28;20052;-86
2021/08/12 01:59:50;;;;;;;1.15;0.77;;;16.10;86.20;;;;;;5074970;28;20013;-87
2021/08/12 02:02:17;;;;;;;0.65;0.65;;;16.10;86.10;;;;;;5075138;28;20029;-87
2021/08/12 02:04:43;;;;;;;0.60;0.60;;;16.20;86.10;;;;;;5075568;28;20028;-87
2021/08/12 02:07:11;;;;;;;1.63;1.05;;;16.10;86.00;;;;;;5075817;28;20016;-86
2021/08/12 02:09:36;;;;;;;0.93;0.93;;;16.10;86.10;;;;;;5076687;28;20047;-87
2021/08/12 02:12:08;;;;;;;1.08;0.95;;;16.10;86.20;;;;;;5075588;28;20032;-88
2021/08/12 02:14:34;;;;;;;0.95;0.90;;;16.10;86.30;;;;;;5075376;28;20024;-88
2021/08/12 02:16:59;;;;;;;0.68;0.68;;;16.10;86.40;;;;;;5075121;28;20028;-88
2021/08/12 02:19:25;;;;;;;1.20;1.08;;;16.10;86.40;;;;;;5057204;28;20024;-88
2021/08/12 02:21:58;;;;;;;1.30;1.17;;;16.10;86.30;;;;;;5074453;28;20079;-88
2021/08/12 02:24:35;;;;;;;1.33;1.00;;;16.20;86.20;;;;;;5074999;28;20028;-88
2021/08/12 02:27:10;;;;;;;1.00;0.88;;;16.20;86.20;;;;;;5074908;28;20039;-88
2021/08/12 02:29:40;;;;;;;1.30;1.02;;;16.20;86.20;;;;;;5074760;28;20092;-88
2021/08/12 02:32:13;;;;;;;0.70;0.70;;;16.20;86.10;;;;;;5056944;28;20480;-89
2021/08/12 02:34:40;;;;;;;1.05;1.00;;;16.20;86.20;;;;;;5074774;28;20028;-88
2021/08/12 02:37:13;;;;;;;0.68;0.68;;;16.20;86.30;;;;;;5074619;28;20095;-89
2021/08/12 02:39:40;;;;;;;1.58;1.20;;;16.20;86.40;;;;;;5056943;28;20125;-89
2021/08/12 02:42:07;;;;;;;2.35;1.40;;;16.10;87.10;;;;;;5074515;28;20054;-89
2021/08/12 02:44:34;;;;;;;1.10;1.02;;;16.10;86.50;;;;;;5074676;28;20024;-88
2021/08/12 02:47:03;;;;;;;1.35;1.15;;;16.10;86.60;;;;;;5079564;28;20032;-90
2021/08/12 02:49:31;;;;;;;1.30;1.00;;;16.10;86.80;;;;;;5079407;28;20027;-89
2021/08/12 02:51:59;;;;;;;1.13;1.00;;;16.10;86.80;;;;;;5076337;28;20267;-90
2021/08/12 02:54:26;;;;;;;2.55;1.60;;;16.10;86.90;;;;;;5058311;28;20024;-90
2021/08/12 02:56:52;;;;;;;2.08;1.30;;;16.10;87.00;;;;;;5077385;28;20048;-90
2021/08/12 02:59:18;;;;;;;1.50;1.20;;;16.00;87.10;;;;;;5080455;28;20078;-90
2021/08/12 03:01:45;;;;;;;1.45;1.05;;;16.00;87.10;;;;;;5083979;28;20044;-89
2021/08/12 03:04:10;;;;;;;1.60;1.20;;;16.00;87.20;;;;;;5082263;28;20021;-88
2021/08/12 03:06:39;;;;;;;2.10;1.50;;;16.00;87.20;;;;;;5081964;28;20035;-90
2021/08/12 03:09:05;;;;;;;1.60;1.08;;;16.00;87.20;;;;;;5080269;28;20021;-89
2021/08/12 03:11:31;;;;;;;1.80;1.30;;;16.00;87.20;;;;;;5074557;28;20099;-90
2021/08/12 03:13:57;;;;;;;1.90;1.58;;;16.00;87.30;;;;;;5079160;28;20024;-90
2021/08/12 03:16:23;;;;;;;1.83;1.67;;;16.00;87.30;;;;;;5075144;28;20021;-90
2021/08/12 03:18:49;;;;;;;2.15;1.48;;;15.90;87.20;;;;;;5075414;28;20024;-89
2021/08/12 03:21:15;;;;;;;2.05;1.48;;;15.90;87.20;;;;;;5081359;28;20052;-89
2021/08/12 03:23:42;;;;;;;3.70;2.70;;;15.90;87.40;;;;;;5075272;28;20029;-90
2021/08/12 03:26:10;;;;;;;1.27;1.17;;;15.90;87.50;;;;;;5074284;28;20558;-89
2021/08/12 03:28:35;;;;;;;1.35;1.23;;;15.80;87.50;;;;;;5075441;28;20516;-88
2021/08/12 03:31:02;;;;;;;1.80;1.35;;;15.80;87.70;;;;;;5075412;28;20036;-89
2021/08/12 03:33:28;;;;;;;1.77;1.35;;;15.80;87.70;;;;;;5077297;28;20054;-89
2021/08/12 03:35:54;;;;;;;2.00;1.60;;;15.80;87.70;;;;;;5089549;28;20029;-88
2021/08/12 03:38:21;;;;;;;1.70;1.38;;;15.80;87.70;;;;;;5060161;28;20491;-88
2021/08/12 03:40:48;;;;;;;2.60;2.00;;;15.80;87.60;;;;;;5073645;28;20028;-90
2021/08/12 03:43:14;;;;;;;1.83;1.30;;;15.70;87.60;;;;;;5074612;28;20070;-90
2021/08/12 03:45:39;;;;;;;1.13;1.02;;;15.70;87.70;;;;;;5074214;28;20028;-90
2021/08/12 03:48:08;;;;;;;1.30;1.17;;;15.70;87.70;;;;;;5074373;28;20122;-89
2021/08/12 03:50:33;;;;;;;0.93;0.93;;;15.70;87.70;;;;;;5074510;28;20032;-90
2021/08/12 03:52:59;;;;;;;1.88;1.50;;;15.70;87.60;;;;;;5073920;28;20029;-90
2021/08/12 03:55:25;;;;;;;1.75;1.40;;;15.70;87.60;;;;;;5073661;28;20025;-89
2021/08/12 03:57:50;;;;;;;1.35;1.15;;;15.70;87.70;;;;;;5077751;28;20085;-88
2021/08/12 04:00:16;;;;;;;1.85;1.73;;;15.60;87.70;;;;;;5078589;28;20032;-89
2021/08/12 04:02:42;;;;;;;1.88;1.30;;;15.70;87.70;;;;;;5078099;28;20028;-89
2021/08/12 04:05:08;;;;;;;3.15;1.23;;;15.70;87.70;;;;;;5078101;28;20024;-89
2021/08/12 04:07:34;;;;;;;1.42;1.33;;;15.70;87.60;;;;;;5078231;28;20039;-88
2021/08/12 04:09:59;;;;;;;1.30;1.20;;;15.70;87.50;;;;;;5063327;28;20470;-89
2021/08/12 04:12:25;;;;;;;1.35;0.90;;;15.70;87.50;;;;;;5078550;28;20024;-90
2021/08/12 04:14:50;;;;;;;1.15;1.00;;;15.70;87.50;;;;;;5077560;28;20086;-90
2021/08/12 04:17:16;;;;;;;1.50;1.10;;;15.70;87.40;;;;;;5077724;28;20036;-90
2021/08/12 04:19:42;;;;;;;0.93;0.88;;;15.70;87.40;;;;;;5077398;28;20020;-89
2021/08/12 04:22:08;;;;;;;2.03;1.23;;;15.70;87.40;;;;;;5077597;28;20040;-89
2021/08/12 04:24:34;;;;;;;1.27;1.10;;;15.70;87.50;;;;;;5077121;28;20034;-90
2021/08/12 04:27:00;;;;;;;1.75;1.30;;;15.60;87.50;;;;;;5077391;28;20025;-90
2021/08/12 04:29:25;;;;;;;1.30;1.20;;;15.60;87.60;;;;;;5077573;28;20500;-89
2021/08/12 04:31:51;;;;;;;1.42;1.33;;;15.60;88.20;;;;;;5077575;28;20031;-89
2021/08/12 04:34:16;;;;;;;2.30;1.50;;;15.60;87.60;;;;;;5064130;28;20027;-90
2021/08/12 04:36:43;;;;;;;1.60;1.50;;;15.70;87.60;;;;;;5081808;28;20091;-90
2021/08/12 04:39:09;;;;;;;1.73;1.30;;;15.70;87.60;;;;;;5090256;28;20025;-90
2021/08/12 04:41:34;;;;;;;1.63;1.33;;;15.70;87.60;;;;;;5091817;28;20056;-90
2021/08/12 04:44:00;;;;;;;2.10;1.30;;;15.70;87.50;;;;;;5088009;28;20024;-90
2021/08/12 04:46:26;;;;;;;1.05;0.95;;;15.70;87.50;;;;;;5062646;28;20035;-90
2021/08/12 04:48:51;;;;;;;1.35;1.20;;;15.70;87.50;;;;;;5083028;28;20035;-90
2021/08/12 04:51:17;;;;;;;1.38;1.00;;;15.70;87.50;;;;;;5084021;28;20020;-90
2021/08/12 04:53:42;;;;;;;1.75;1.42;;;15.70;87.50;;;;;;5079371;28;20056;-90
2021/08/12 04:56:08;;;;;;;1.35;1.25;;;15.80;87.50;;;;;;5076953;28;20025;-89
2021/08/12 04:58:33;;;;;;;1.40;1.08;;;15.80;87.30;;;;;;5077983;28;20029;-89
2021/08/12 05:00:59;;;;;;;0.77;0.68;;;15.80;87.20;;;;;;5092918;28;20058;-89
2021/08/12 05:03:24;;;;;;;1.17;1.08;;;15.90;87.20;;;;;;5080529;28;20078;-90
2021/08/12 05:06:00;;;;;;;1.40;1.05;;;15.90;87.20;;;;;;5079769;28;20052;-91
2021/08/12 05:08:25;;;;;;;1.55;1.10;;;15.90;87.20;;;;;;5078920;28;20025;-91
2021/08/12 05:10:51;;;;;;;1.42;1.27;;;15.90;87.20;;;;;;5084792;28;20028;-90
2021/08/12 05:13:16;;;;;;;2.25;1.40;;;15.90;87.20;;;;;;5081561;28;20028;-89
2021/08/12 05:15:41;;;;;;;1.33;1.23;;;15.90;87.30;;;;;;5077036;28;20066;-90
2021/08/12 05:18:07;;;;;;;1.33;1.10;;;15.90;87.20;;;;;;5079123;28;20103;-90
2021/08/12 05:20:33;;;;;;;1.63;1.20;;;15.90;87.30;;;;;;5076304;28;20043;-89
2021/08/12 05:22:58;;;;;;;2.42;1.73;;;15.90;87.30;;;;;;5077512;28;20048;-90
2021/08/12 05:25:24;;;;;;;1.83;1.10;;;15.90;87.20;;;;;;5076993;28;20036;-89
2021/08/12 05:27:49;;;;;;;1.10;1.00;;;15.90;87.20;;;;;;5079425;28;20021;-89
2021/08/12 05:30:15;;;;;;;1.10;1.00;;;15.90;87.20;;;;;;5081791;28;20028;-90
2021/08/12 05:32:40;;;;;;;1.10;1.00;;;16.00;87.30;;;;;;5077901;28;20162;-90
2021/08/12 05:35:06;;;;;;;1.30;1.20;;;16.00;87.30;;;;;;5064190;28;20026;-90
2021/08/12 05:37:32;;;;;;;1.00;0.90;;;16.10;87.30;;;;;;5079632;28;20025;-89
2021/08/12 05:39:57;;;;;;;0.90;0.88;;;16.10;87.20;;;;;;5059113;28;20465;-90
2021/08/12 05:42:23;;;;;;;2.30;1.13;;;16.20;87.20;;;;;;5079216;28;20017;-90
2021/08/12 05:44:48;;;;;;;1.20;1.10;;;16.30;87.00;;;;;;5080034;28;20074;-90
2021/08/12 05:47:14;;;;;;;1.42;1.10;;;16.40;86.90;;;;;;5078958;28;20025;-89
2021/08/12 05:49:40;;;;;;;1.10;1.00;;;16.40;86.80;;;;;;5076601;28;20020;-89
2021/08/12 05:52:08;;;;;;;1.58;1.13;;;16.50;86.90;;;;;;5082265;28;20040;-89
2021/08/12 05:54:34;;;;;;;1.13;0.90;;;16.50;86.80;;;;;;5078299;28;20146;-88
2021/08/12 05:56:59;;;;;;;1.30;1.20;;;16.60;86.70;;;;;;5076461;28;20055;-89
2021/08/12 05:59:25;;;;;;;0.95;0.85;;;16.70;86.70;;;;;;5076415;28;20028;-89
2021/08/12 06:01:50;;;;;;;1.17;0.95;;;16.70;86.60;;;;;;5058616;28;20037;-89
2021/08/12 06:04:16;;;;;;;0.88;0.88;;;16.70;86.70;;;;;;5077116;28;20021;-89
2021/08/12 06:06:41;;;;;;;1.95;1.20;;;16.80;86.70;;;;;;5079220;28;20032;-89
2021/08/12 06:09:07;;;;;;;0.93;0.80;;;16.80;86.60;;;;;;5082377;28;20036;-89
2021/08/12 06:11:33;;;;;;;0.98;0.85;;;16.90;86.60;;;;;;5069639;28;20020;-90
2021/08/12 06:13:58;;;;;;;1.23;1.10;;;16.90;86.50;;;;;;5071500;28;20016;-89
2021/08/12 06:16:24;;;;;;;1.27;1.17;;;17.00;86.60;;;;;;5091624;28;20036;-89
2021/08/12 06:18:49;;;;;;;1.20;1.10;;;17.00;86.50;;;;;;5082116;28;20108;-87
2021/08/12 06:21:15;;;;;;;1.63;1.40;;;17.10;86.30;;;;;;5080887;28;20118;-88
2021/08/12 06:23:42;;;;;;;2.22;1.60;;;17.20;86.20;;;;;;5079338;28;20070;-89
2021/08/12 06:26:09;;;;;;;1.65;1.17;;;17.30;86.10;;;;;;5084839;28;20028;-89
2021/08/12 06:28:37;;;;;;;1.52;1.02;;;17.40;86.10;;;;;;5082277;28;20016;-87
2021/08/12 06:31:03;;;;;;;1.27;1.17;;;17.40;86.10;;;;;;5084587;28;20370;-88
2021/08/12 06:33:29;;;;;;;1.13;1.02;;;17.50;86.10;;;;;;5083081;28;20013;-88
2021/08/12 06:35:54;;;;;;;1.35;1.08;;;17.60;86.10;;;;;;5087209;28;20453;-89
2021/08/12 06:38:20;;;;;;;1.30;1.02;;;17.70;86.00;;;;;;5084499;28;20413;-89
2021/08/12 06:40:45;;;;;;;0.90;0.73;;;17.70;85.90;;;;;;5084951;28;20032;-88
2021/08/12 06:43:11;;;;;;;1.13;1.02;;;17.80;86.00;;;;;;5086894;28;20109;-89
2021/08/12 06:45:36;;;;;;;0.90;0.90;;;17.90;86.00;;;;;;5087069;28;20028;-89
2021/08/12 06:48:06;;;;;;;2.05;1.65;;;17.90;86.00;;;;;;5084533;28;20029;-88
2021/08/12 06:50:31;;;;;;;1.67;1.20;;;18.00;86.10;;;;;;5086990;28;20029;-88
2021/08/12 06:52:57;;;;;;;1.70;1.52;;;18.00;86.10;;;;;;5079674;28;20035;-87
2021/08/12 06:55:22;;;;;;;2.63;1.80;;;18.00;86.10;;;;;;5061277;28;20485;-87
2021/08/12 06:57:48;;;;;;;2.00;1.38;;;18.10;86.20;;;;;;5084008;28;20032;-88
2021/08/12 07:00:14;;;;;;;1.80;1.33;;;18.10;86.20;;;;;;5078549;28;20070;-86
2021/08/12 07:02:40;;;;;;;1.65;1.15;;;18.20;86.10;;;;;;5065513;28;20024;-88
2021/08/12 07:05:07;;;;;;;1.42;1.10;;;18.20;86.00;;;;;;5085673;28;20024;-89
2021/08/12 07:07:32;;;;;;;1.45;1.27;;;18.30;86.10;;;;;;5086214;28;20025;-88
2021/08/12 07:09:58;;;;;;;1.60;1.17;;;18.30;86.10;;;;;;5085246;28;20110;-88
2021/08/12 07:12:24;;;;;;;1.45;1.25;;;18.30;85.90;;;;;;5083198;28;20032;-86
2021/08/12 07:14:49;;;;;;;1.00;0.90;;;18.40;85.90;;;;;;5078709;28;20410;-87
2021/08/12 07:17:15;;;;;;;1.30;1.20;;;18.50;85.90;;;;;;5082503;28;20040;-88
2021/08/12 07:19:41;;;;;;;1.85;1.52;;;18.50;85.90;;;;;;5081630;28;20112;-87
2021/08/12 07:22:06;;;;;;;1.38;1.27;;;18.60;85.90;;;;;;5080356;28;20044;-89
2021/08/12 07:24:32;;;;;;;1.50;1.40;;;18.60;85.90;;;;;;5082211;28;20035;-87
2021/08/12 07:26:58;;;;;;;2.55;1.10;;;18.70;85.80;;;;;;5078348;28;20024;-89
2021/08/12 07:29:24;;;;;;;1.42;1.00;;;18.70;85.80;;;;;;5076907;28;20031;-87
2021/08/12 07:31:50;;;;;;;1.73;1.17;;;18.80;85.70;;;;;;5082386;28;20028;-88
2021/08/12 07:34:16;;;;;;;1.27;1.00;;;18.80;85.60;;;;;;5082093;28;20019;-87
2021/08/12 07:36:41;;;;;;;1.30;1.20;;;18.90;85.60;;;;;;5085807;28;20088;-88
2021/08/12 07:39:07;;;;;;;1.45;1.35;;;19.00;85.60;;;;;;5082519;28;20528;-88
2021/08/12 07:41:34;;;;;;;1.45;1.23;;;19.10;85.50;;;;;;5084467;28;20056;-87
2021/08/12 07:44:00;;;;;;;1.00;0.88;;;19.10;85.40;;;;;;5082859;28;20024;-87
2021/08/12 07:46:26;;;;;;;1.73;1.27;;;19.20;85.30;;;;;;5083544;28;20032;-87
2021/08/12 07:48:51;;;;;;;1.00;0.90;;;19.30;85.20;;;;;;5082025;28;20020;-88
2021/08/12 07:51:18;;;;;;;1.17;1.08;;;19.40;85.20;;;;;;5080288;28;20091;-86
2021/08/12 07:53:45;;;;;;;1.20;1.10;;;19.40;85.10;;;;;;5063111;28;20024;-88
2021/08/12 07:56:11;;;;;;;1.02;0.90;;;19.50;85.10;;;;;;5080090;28;20031;-88
2021/08/12 07:58:37;;;;;;;1.08;0.98;;;19.60;85.00;;;;;;5079820;28;20009;-89
2021/08/12 08:01:03;;;;;;;1.33;1.20;;;19.70;84.80;;;;;;5077939;28;20028;-86
2021/08/12 08:03:28;;;;;;;1.38;1.10;;;19.70;84.70;;;;;;5062091;28;20081;-88
2021/08/12 08:05:54;;;;;;;1.65;1.15;;;19.80;84.70;;;;;;5080569;28;20492;-87
2021/08/12 08:08:19;;;;;;;0.82;0.82;;;19.80;84.70;;;;;;5080168;28;20040;-86
2021/08/12 08:10:45;;;;;;;1.23;1.10;;;19.90;84.80;;;;;;5079759;28;20025;-88
2021/08/12 08:13:10;;;;;;;1.02;0.93;;;19.90;84.70;;;;;;5081089;28;20032;-88
2021/08/12 08:15:36;;;;;;;2.05;1.42;;;20.00;84.70;;;;;;5081548;28;20030;-86
2021/08/12 08:18:02;;;;;;;1.30;1.20;;;20.10;84.70;;;;;;5084482;28;20419;-87
2021/08/12 08:20:29;;;;;;;1.42;1.33;;;20.10;84.70;;;;;;5084787;28;20076;-85
2021/08/12 08:22:54;;;;;;;2.45;1.65;;;20.20;84.60;;;;;;5078370;28;20045;-86
2021/08/12 08:25:20;;;;;;;1.00;1.00;;;20.30;84.50;;;;;;5060941;28;20039;-87
2021/08/12 08:27:45;;;;;;;1.73;1.60;;;20.30;84.50;;;;;;5077755;28;20025;-85
2021/08/12 08:30:11;;;;;;;2.15;1.67;;;20.40;84.30;;;;;;5077346;28;20032;-86
2021/08/12 08:32:37;;;;;;;1.63;1.42;;;20.50;84.30;;;;;;5079778;28;20033;-87
2021/08/12 08:35:03;;;;;;;2.00;1.60;;;20.60;84.40;;;;;;5078200;28;20024;-86
2021/08/12 08:37:29;;;;;;;2.22;1.52;;;20.60;84.30;;;;;;5079441;28;20036;-87
2021/08/12 08:39:54;;;;;;;2.08;1.77;;;20.70;84.50;;;;;;5077753;28;20021;-87
2021/08/12 08:42:20;;;;;;;1.75;1.58;;;20.80;84.20;;;;;;5077609;28;20074;-86
2021/08/12 08:44:49;;;;;;;3.03;1.50;;;20.90;84.20;;;;;;5077985;28;20031;-87
2021/08/12 08:47:17;;;;;;;1.60;1.20;;;21.00;84.00;;;;;;5079635;28;20052;-87
2021/08/12 08:49:45;;;;;;;1.50;1.35;;;21.00;84.00;;;;;;5077422;28;20017;-88
2021/08/12 08:52:11;;;;;;;2.28;1.50;;;21.10;83.90;;;;;;5079548;28;20019;-87
2021/08/12 08:54:38;;;;;;;1.73;1.55;;;21.20;83.90;;;;;;5079685;28;20031;-86
2021/08/12 08:57:05;;;;;;;1.40;1.30;;;21.10;83.70;;;;;;5078062;28;20025;-86
2021/08/12 08:59:32;;;;;;;1.60;1.48;;;21.20;83.70;;;;;;5078290;28;20476;-88
2021/08/12 09:01:58;;;;;;;1.65;1.27;;;21.30;83.60;;;;;;5060217;28;20047;-87
2021/08/12 09:04:24;;;;;;;1.65;1.20;;;21.40;83.60;;;;;;5077486;28;20074;-86
2021/08/12 09:06:49;;;;;;;1.17;1.08;;;21.40;83.60;;;;;;5077499;28;20029;-87
2021/08/12 09:09:15;;;;;;;1.33;1.23;;;21.50;83.50;;;;;;5077495;28;20025;-87
2021/08/12 09:11:41;;;;;;;1.55;1.33;;;21.60;83.50;;;;;;5077871;28;20099;-87
2021/08/12 09:14:38;;;;;;;0.70;0.70;;;21.60;83.50;;;;;;5077376;28;20059;-86
2021/08/12 09:17:19;;;;;;;1.35;1.25;;;21.60;83.40;;;;;;5077082;28;20069;-87
2021/08/12 09:20:08;;;;;;;1.83;1.23;;;21.70;83.50;;;;;;5078056;28;20033;-87
2021/08/12 09:22:56;;;;;;;0.98;0.93;;;21.80;83.50;;;;;;5079083;28;20063;-87
2021/08/12 09:25:44;;;;;;;1.90;1.17;;;21.80;83.40;;;;;;5059680;28;20059;-88
2021/08/12 09:28:25;;;;;;;1.20;1.10;;;21.90;83.20;;;;;;5077543;28;20473;-89
2021/08/12 09:31:02;;;;;;;1.02;0.95;;;22.00;83.20;;;;;;5079660;28;20048;-87
2021/08/12 09:33:39;;;;;;;0.95;0.95;;;22.10;83.00;;;;;;5080467;28;20033;-89
2021/08/12 09:36:22;;;;;;;0.90;0.90;;;22.20;83.00;;;;;;5077898;28;20036;-87
2021/08/12 09:39:18;;;;;;;1.40;1.30;;;22.30;82.90;;;;;;5075941;28;20028;-86
2021/08/12 09:41:48;;;;;;;1.45;1.00;;;22.40;82.80;;;;;;5075913;28;20036;-87
2021/08/12 09:44:34;;;;;;;0.77;0.77;;;22.40;82.70;;;;;;5076041;28;20035;-88
2021/08/12 09:47:08;;;;;;;1.23;1.08;;;22.40;82.60;;;;;;5076246;28;20032;-87
2021/08/12 09:49:43;;;;;;;1.95;1.52;;;22.50;82.70;;;;;;5076951;28;20089;-87
2021/08/12 09:52:18;;;;;;;1.25;1.10;;;22.50;82.60;;;;;;5057267;28;20017;-85
2021/08/12 09:54:44;;;;;;;2.10;1.35;;;22.50;82.30;;;;;;5074667;28;20036;-86
2021/08/12 09:57:17;;;;;;;1.35;1.05;;;22.60;82.30;;;;;;5075358;28;20075;-87
2021/08/12 09:59:50;;;;;;;1.08;1.05;;;22.70;82.10;;;;;;5075362;28;20382;-87
2021/08/12 10:02:16;;;;;;;1.42;1.13;;;22.70;82.10;;;;;;5077085;28;20032;-88
2021/08/12 10:04:42;;;;;;;1.33;1.23;;;22.80;82.10;;;;;;5057569;28;20469;-85
2021/08/12 10:07:08;;;;;;;0.80;0.77;;;22.80;81.80;;;;;;5075452;28;20073;-86
2021/08/12 10:09:40;;;;;;;1.55;0.93;;;22.90;82.00;;;;;;5076519;28;20099;-87
2021/08/12 10:12:09;;;;;;;1.08;0.75;;;22.90;81.80;;;;;;5057121;28;20484;-87
2021/08/12 10:14:35;;;;;;;0.60;0.60;;;23.10;81.80;;;;;;5074955;28;20016;-90
2021/08/12 10:17:02;;;;;;;0.98;0.70;;;23.20;81.60;;;;;;5075454;28;20048;-88
2021/08/12 10:19:29;;;;;;;0.70;0.70;;;23.20;81.40;;;;;;5076019;28;20493;-86
2021/08/12 10:21:55;;;;;;;0.50;0.50;;;23.30;81.40;;;;;;5060015;28;20074;-87
2021/08/12 10:24:25;;;;;;;1.27;1.13;;;23.30;81.40;;;;;;5074842;28;20020;-86
2021/08/12 10:26:51;;;;;;;1.50;1.10;;;23.40;80.90;;;;;;5073861;28;20104;-85
2021/08/12 10:29:23;;;;;;;1.15;1.05;;;23.40;80.60;;;;;;5074896;28;20027;-86
2021/08/12 10:31:51;;;;;;;0.95;0.85;;;23.40;80.80;;;;;;5075729;28;20107;-87
2021/08/12 10:34:16;;;;;;;1.27;1.10;;;23.50;81.00;;;;;;5075980;28;20070;-85
2021/08/12 10:36:44;;;;;;;0.70;0.70;;;23.60;80.80;;;;;;5057077;28;20470;-88
2021/08/12 10:39:13;;;;;;;0.95;0.93;;;23.60;80.70;;;;;;5074619;28;20384;-88
2021/08/12 10:41:40;;;;;;;1.23;1.00;;;23.70;80.60;;;;;;5056431;28;20031;-88
2021/08/12 10:44:05;;;;;;;1.20;1.10;;;23.90;80.50;;;;;;5074223;28;20103;-84
2021/08/12 10:46:39;;;;;;;1.20;1.10;;;24.00;80.10;;;;;;5074172;28;20112;-86
2021/08/12 10:49:30;;;;;;;1.48;0.95;;;24.00;79.90;;;;;;5074326;28;20021;-84
2021/08/12 10:52:03;;;;;;;1.10;1.00;;;24.10;80.00;;;;;;5074022;28;20028;-84
2021/08/12 10:54:31;;;;;;;1.45;1.33;;;24.10;79.80;;;;;;5073861;28;20039;-89
2021/08/12 10:57:16;;;;;;;0.90;0.90;;;24.20;79.80;;;;;;5074828;28;20024;-89
2021/08/12 10:59:42;;;;;;;1.35;1.20;;;24.30;79.90;;;;;;5074533;28;20037;-84
2021/08/12 11:02:26;;;;;;;1.35;1.25;;;24.30;79.50;;;;;;5074866;28;20054;-89
2021/08/12 11:04:53;;;;;;;1.30;1.20;;;24.40;79.60;;;;;;5075103;28;20036;-88
2021/08/12 11:07:40;;;;;;;1.50;1.20;;;24.40;79.50;;;;;;5074772;28;20024;-87
2021/08/12 11:10:11;;;;;;;0.88;0.80;;;24.60;79.30;;;;;;5055824;28;20024;-89
2021/08/12 11:13:03;;;;;;;1.40;1.15;;;24.60;79.30;;;;;;5074104;28;20477;-88
2021/08/12 11:15:41;;;;;;;1.40;1.02;;;24.80;79.30;;;;;;5071633;28;20116;-88
2021/08/12 11:18:08;;;;;;;1.38;1.27;;;24.90;79.00;;;;;;5074111;28;20028;-88
2021/08/12 11:20:38;;;;;;;0.65;0.65;;;25.00;79.00;;;;;;5073812;28;20024;-87
2021/08/12 11:23:21;;;;;;;1.08;1.00;;;25.00;78.80;;;;;;5073075;28;20075;-86
2021/08/12 11:25:55;;;;;;;1.60;1.00;;;25.10;78.70;;;;;;5073813;28;20024;-87
2021/08/12 11:28:39;;;;;;;1.00;1.00;;;25.20;78.90;;;;;;5074208;28;20571;-85
2021/08/12 11:31:05;;;;;;;1.70;1.00;;;25.20;78.70;;;;;;5073699;28;20039;-87
2021/08/12 11:33:32;;;;;;;0.88;0.80;;;25.30;78.70;;;;;;5073925;28;20049;-87
2021/08/12 11:36:09;;;;;;;0.70;0.70;;;25.30;78.60;;;;;;5073428;28;20124;-87
2021/08/12 11:38:34;;;;;;;1.00;0.90;;;25.40;78.70;;;;;;5073421;28;20028;-87
2021/08/12 11:41:00;;;;;;;1.08;0.90;;;25.50;78.70;;;;;;5073550;28;20021;-86
2021/08/12 11:43:27;;;;;;;1.88;1.05;;;25.60;78.60;;;;;;5073423;28;20021;-82
2021/08/12 11:45:56;;;;;;;1.52;1.42;;;25.90;77.60;;;;;;5073622;28;20033;-88
2021/08/12 11:48:22;;;;;;;0.82;0.82;;;26.40;76.80;;;;;;5074292;28;20029;-86
2021/08/12 11:50:49;;;;;;;0.85;0.85;;;26.90;76.30;;;;;;5076235;28;20533;-86
2021/08/12 11:53:15;;;;;;;1.00;0.88;;;27.40;75.30;;;;;;5074177;28;20096;-87
2021/08/12 11:55:41;;;;;;;1.33;1.00;;;27.70;75.00;;;;;;5073743;28;20109;-85
2021/08/12 11:58:07;;;;;;;1.05;0.85;;;28.10;74.50;;;;;;5073736;28;20016;-85
2021/08/12 12:00:34;;;;;;;1.45;0.90;;;28.60;73.90;;;;;;5073796;28;20389;-86
2021/08/12 12:03:04;;;;;;;1.15;0.93;;;29.00;73.40;;;;;;5073448;28;20066;-84
2021/08/12 12:05:35;;;;;;;1.13;1.02;;;29.20;72.90;;;;;;5073217;28;20020;-85
2021/08/12 12:08:08;;;;;;;1.15;1.05;;;28.80;72.90;;;;;;5073845;28;20027;-90
2021/08/12 12:10:41;;;;;;;1.02;0.90;;;28.20;73.90;;;;;;5075289;28;20025;-88
2021/08/12 12:13:21;;;;;;;1.30;1.15;;;28.00;75.00;;;;;;5056924;28;20477;-89
2021/08/12 12:15:55;;;;;;;1.17;1.10;;;27.80;74.90;;;;;;5056540;28;20032;-84
2021/08/12 12:18:32;;;;;;;1.02;0.93;;;27.70;74.80;;;;;;5078400;28;20048;-89
2021/08/12 12:21:05;;;;;;;0.95;0.95;;;27.90;74.90;;;;;;5077998;28;20028;-88
2021/08/12 12:23:30;;;;;;;0.80;0.80;;;28.30;74.30;;;;;;5059625;28;20140;-88
2021/08/12 12:25:56;;;;;;;0.70;0.70;;;28.40;74.00;;;;;;5077342;28;20052;-89
2021/08/12 12:28:21;;;;;;;0.95;0.70;;;28.50;74.00;;;;;;5078138;28;20107;-89
2021/08/12 12:30:47;;;;;;;0.98;0.88;;;28.50;73.90;;;;;;5078152;28;20032;-90
2021/08/12 12:33:16;;;;;;;1.20;1.10;;;28.30;74.00;;;;;;5078368;28;20025;-88
2021/08/12 12:35:51;;;;;;;;;;;27.90;74.40;;;;;;5077413;28;20029;-87
2021/08/12 12:38:20;;;;;;;1.13;1.00;;;27.60;75.50;;;;;;5077638;28;19995;-85
2021/08/12 12:40:47;;;;;;;0.95;0.95;;;27.60;75.50;;;;;;5076762;28;20040;-88
2021/08/12 12:43:13;;;;;;;0.80;0.80;;;27.40;75.60;;;;;;5077251;28;20531;-90
2021/08/12 12:45:55;;;;;;;1.02;0.80;;;27.10;76.00;;;;;;5077084;28;20032;-89
2021/08/12 12:48:39;;;;;;;1.10;1.00;;;27.00;76.50;;;;;;5058988;28;20016;-86
2021/08/12 12:51:08;;;;;;;0.82;0.82;;;27.00;76.40;;;;;;5077974;28;20029;-89
2021/08/12 12:53:42;;;;;;;1.13;0.90;;;27.10;76.30;;;;;;5077973;28;20132;-89